General Piran, Argentina
Current Conditions -  °F | °C
As of 5:00 AM on Sunday 21 Dec 2014 (Local Time) from SAZM Reporting Station
Clear Clear  
Wind Chill: 59°   Ceiling: Unl
Heat Index: 59°   Visibility: 6mi
Dew Point: 41°   Wind: 5mph
Humidity: 51%   Direction: 180°S
Pressure: 29.8"   Gusts: NA
Location:  37.28°S, 57.79°W
Report Text: SAZM 210800Z 18004KT CAVOK 15/05 Q1009
Loading
Personal Weather Stations






























Interactive Weather Map New forecast layout! Learn more

10-Day Weather Forecast

Advertisements
Track Severe Weather on mobile